Time;durP1;ratioP1;P1;durP2;ratioP2;P2;SDS_P1;SDS_P2;PMS_P1;PMS_P2;Temp;Humidity;BMP_temperature;BMP_pressure;BME280_temperature;BME280_humidity;BME280_pressure;Samples;Min_cycle;Max_cycle;Signal;HPM_P1;HPM_P2
2022/07/29 00:02:28;;;;;;;0.37;0.37;;;;;;;25.63;47.44;95224.63;5047384;28;20197;-68
2022/07/29 00:04:55;;;;;;;0.43;0.43;;;;;;;25.68;47.40;95221.69;5045794;28;20204;-68
2022/07/29 00:07:21;;;;;;;0.60;0.57;;;;;;;25.58;47.61;95227.56;5051537;28;20258;-68
2022/07/29 00:09:48;;;;;;;0.67;0.67;;;;;;;25.84;46.71;95228.66;5052916;28;20656;-65
2022/07/29 00:12:19;;;;;;;0.67;0.67;;;;;;;26.06;46.47;95240.78;5039096;28;20261;-67
2022/07/29 00:14:54;;;;;;;1.37;1.27;;;;;;;25.89;46.88;95238.38;5052917;28;20730;-69
2022/07/29 00:17:22;;;;;;;1.07;0.97;;;;;;;25.92;47.05;95237.69;5053245;28;20212;-69
2022/07/29 00:19:49;;;;;;;0.30;0.30;;;;;;;25.47;47.45;95234.53;5053406;28;20192;-71
2022/07/29 00:22:16;;;;;;;1.27;1.17;;;;;;;25.82;46.97;95243.56;5053170;28;20227;-70
2022/07/29 00:24:42;;;;;;;1.47;1.37;;;;;;;25.55;47.36;95249.69;5052698;28;20266;-63
2022/07/29 00:27:09;;;;;;;0.93;0.93;;;;;;;25.87;47.46;95251.38;5052948;28;20200;-69
2022/07/29 00:29:36;;;;;;;1.10;0.80;;;;;;;25.57;47.99;95247.47;5033002;28;20280;-69
2022/07/29 00:32:03;;;;;;;0.40;0.40;;;;;;;25.66;47.84;95248.09;5044818;28;20216;-66
2022/07/29 00:37:16;;;;;;;0.60;0.60;;;;;;;25.84;48.25;95238.63;5052281;28;20196;-69
2022/07/29 00:39:43;;;;;;;4.70;0.80;;;;;;;25.97;47.61;95237.44;5052683;28;20219;-67
2022/07/29 00:42:10;;;;;;;5.10;1.00;;;;;;;25.98;47.13;95230.97;5052704;28;20254;-63
2022/07/29 00:44:41;;;;;;;0.47;0.47;;;;;;;25.97;47.16;95234.75;5052293;28;21024;-69
2022/07/29 00:47:10;;;;;;;0.60;0.60;;;;;;;25.50;48.04;95239.22;5052417;28;20679;-69
2022/07/29 00:49:39;;;;;;;1.00;0.73;;;;;;;25.77;48.00;95243.81;5052198;28;20200;-67
2022/07/29 00:52:08;;;;;;;0.60;0.60;;;;;;;25.89;47.49;95247.19;5051860;28;20266;-70
2022/07/29 00:54:36;;;;;;;0.53;0.53;;;;;;;25.70;47.70;95238.25;5052600;28;20196;-65
2022/07/29 00:57:11;;;;;;;0.60;0.60;;;;;;;25.97;47.20;95245.50;5052080;28;20188;-70
2022/07/29 00:59:38;;;;;;;3.80;1.47;;;;;;;25.95;47.41;95247.72;5052142;28;20246;-67
2022/07/29 01:02:04;;;;;;;1.87;1.20;;;;;;;26.16;46.77;95237.59;5051861;28;20630;-64
2022/07/29 01:04:32;;;;;;;0.33;0.33;;;;;;;26.29;46.31;95239.09;5052300;28;20196;-66
2022/07/29 01:07:01;;;;;;;1.47;1.07;;;;;;;26.31;46.17;95242.22;5051587;28;20205;-70
2022/07/29 01:09:32;;;;;;;0.43;0.43;;;;;;;26.42;45.99;95240.53;5052430;28;20245;-69
2022/07/29 01:12:24;;;;;;;0.50;0.50;;;;;;;26.49;46.02;95229.97;5051644;28;20216;-66
2022/07/29 01:14:53;;;;;;;0.50;0.50;;;;;;;26.36;46.42;95233.88;5041666;28;20205;-70
2022/07/29 01:17:32;;;;;;;0.40;0.40;;;;;;;26.24;46.85;95233.94;5034569;28;20205;-70
2022/07/29 01:20:07;;;;;;;0.40;0.40;;;;;;;26.08;47.46;95232.38;5040971;28;20795;-67
2022/07/29 01:22:34;;;;;;;0.30;0.30;;;;;;;25.92;47.80;95240.38;5045546;28;20205;-66
2022/07/29 01:25:27;;;;;;;1.30;1.20;;;;;;;25.90;47.97;95234.56;5040823;28;20204;-67
2022/07/29 01:28:14;;;;;;;0.40;0.40;;;;;;;25.90;48.01;95230.00;5046047;28;20263;-65
2022/07/29 01:30:45;;;;;;;0.83;0.83;;;;;;;25.53;48.67;95211.72;5044935;28;20999;-66
2022/07/29 01:33:48;;;;;;;0.80;0.80;;;;;;;25.44;49.03;95221.78;5044449;28;20209;-67
2022/07/29 01:36:10;;;;;;;0.60;0.60;;;;;;;25.39;49.44;95236.22;5050742;28;20197;-66
2022/07/29 01:38:41;;;;;;;3.47;1.40;;;;;;;25.61;49.24;95226.88;5051416;28;20243;-73
2022/07/29 01:41:17;;;;;;;1.30;1.20;;;;;;;25.71;48.99;95231.75;5051262;28;20189;-63
2022/07/29 01:43:53;;;;;;;0.60;0.60;;;;;;;25.69;48.90;95217.91;5051478;28;20207;-65
2022/07/29 01:46:27;;;;;;;3.40;1.30;;;;;;;25.29;50.04;95217.13;5037070;28;20265;-67
2022/07/29 01:49:00;;;;;;;0.80;0.80;;;;;;;25.69;49.09;95215.22;5051274;28;20242;-67
2022/07/29 01:51:40;;;;;;;0.50;0.50;;;;;;;25.27;50.32;95216.69;5051099;28;20201;-70
2022/07/29 01:54:14;;;;;;;0.50;0.50;;;;;;;25.13;50.63;95227.00;5051392;28;20258;-67
2022/07/29 01:56:43;;;;;;;0.90;0.90;;;;;;;25.30;50.21;95216.00;5050338;28;20690;-64
2022/07/29 01:59:11;;;;;;;1.47;1.37;;;;;;;25.06;50.91;95206.91;5051165;28;20273;-68
2022/07/29 02:01:41;;;;;;;0.93;0.80;;;;;;;25.43;50.07;95210.28;5049868;28;20196;-67
2022/07/29 02:04:11;;;;;;;9.33;2.17;;;;;;;25.49;49.74;95210.84;5051066;28;20200;-66
2022/07/29 02:06:58;;;;;;;0.40;0.40;;;;;;;25.37;49.96;95200.88;5051096;28;20196;-69
2022/07/29 02:09:26;;;;;;;0.70;0.70;;;;;;;24.39;52.85;95214.75;5051099;28;20212;-67
2022/07/29 02:11:55;;;;;;;0.87;0.87;;;;;;;24.68;52.31;95203.81;5051184;28;20652;-73
2022/07/29 02:14:23;;;;;;;0.80;0.80;;;;;;;24.86;51.68;95191.75;5037384;28;20559;-68
2022/07/29 02:16:53;;;;;;;0.60;0.60;;;;;;;25.00;51.62;95202.88;5050636;28;20612;-69
2022/07/29 02:19:23;;;;;;;0.47;0.47;;;;;;;24.99;51.45;95189.81;5050188;28;20199;-67
2022/07/29 02:21:52;;;;;;;0.87;0.87;;;;;;;24.99;51.01;95200.53;5039106;28;20270;-65
2022/07/29 02:24:19;;;;;;;0.60;0.60;;;;;;;25.00;51.43;95202.09;5043260;28;20247;-71
2022/07/29 02:26:49;;;;;;;0.40;0.40;;;;;;;25.09;51.11;95195.50;5030267;28;20754;-68
2022/07/29 02:29:18;;;;;;;0.40;0.40;;;;;;;24.54;53.00;95205.28;5033302;28;20196;-66
2022/07/29 02:31:47;;;;;;;0.53;0.53;;;;;;;24.95;51.58;95205.03;5050810;28;20633;-71
2022/07/29 02:34:17;;;;;;;1.40;0.87;;;;;;;25.11;51.42;95213.16;5036328;28;20193;-65
2022/07/29 02:36:46;;;;;;;0.57;0.57;;;;;;;25.13;51.19;95205.56;5041834;28;20215;-70
2022/07/29 02:39:15;;;;;;;0.77;0.73;;;;;;;24.84;52.24;95203.91;5045445;28;20203;-65
2022/07/29 02:41:48;;;;;;;0.90;0.90;;;;;;;24.75;52.33;95185.28;5050325;28;20227;-68
2022/07/29 02:44:18;;;;;;;0.97;0.93;;;;;;;25.15;51.26;95187.19;5036076;28;20228;-64
2022/07/29 02:47:12;;;;;;;0.93;0.93;;;;;;;24.86;51.30;95181.03;5050608;28;20204;-66
2022/07/29 02:50:02;;;;;;;0.40;0.40;;;;;;;25.01;51.27;95187.59;5050219;28;20668;-70
2022/07/29 02:52:41;;;;;;;0.93;0.93;;;;;;;25.34;50.14;95179.31;5050134;28;20251;-67
2022/07/29 02:55:30;;;;;;;0.80;0.80;;;;;;;25.35;49.85;95175.50;5050158;28;20219;-68
2022/07/29 02:58:22;;;;;;;0.83;0.83;;;;;;;25.34;50.32;95184.69;5039195;28;20189;-72
2022/07/29 03:00:51;;;;;;;0.57;0.40;;;;;;;24.64;52.12;95188.72;5036352;28;20322;-64
2022/07/29 03:03:19;;;;;;;0.57;0.57;;;;;;;25.05;51.30;95189.25;5050185;28;20590;-65
2022/07/29 03:05:45;;;;;;;2.53;1.80;;;;;;;25.06;50.93;95190.81;5049968;28;20729;-65
2022/07/29 03:08:14;;;;;;;0.83;0.67;;;;;;;24.99;51.28;95187.94;5050183;28;20200;-65
2022/07/29 03:10:45;;;;;;;1.07;0.90;;;;;;;25.02;51.08;95189.94;5036221;28;20571;-66
2022/07/29 03:13:13;;;;;;;0.57;0.57;;;;;;;25.17;50.45;95184.97;5049926;28;20227;-67
2022/07/29 03:15:43;;;;;;;0.43;0.43;;;;;;;25.06;50.64;95190.81;5034738;28;20208;-73
2022/07/29 03:18:10;;;;;;;1.73;1.57;;;;;;;24.84;51.23;95188.63;5050236;28;20208;-71
2022/07/29 03:20:38;;;;;;;1.97;1.87;;;;;;;25.01;50.93;95193.75;5035959;28;20737;-70
2022/07/29 03:23:05;;;;;;;0.30;0.30;;;;;;;24.99;50.74;95195.97;5052852;28;20524;-68
2022/07/29 03:25:32;;;;;;;1.07;0.97;;;;;;;25.02;50.99;95195.28;5050133;28;20726;-70
2022/07/29 03:27:59;;;;;;;0.93;0.80;;;;;;;25.17;50.17;95174.22;5036191;28;20216;-66
2022/07/29 03:30:26;;;;;;;0.80;0.80;;;;;;;25.34;50.01;95190.06;5049800;28;20671;-69
2022/07/29 03:32:54;;;;;;;0.30;0.30;;;;;;;25.01;50.78;95193.75;5035651;28;20225;-66
2022/07/29 03:35:24;;;;;;;0.70;0.70;;;;;;;25.26;50.45;95190.97;5049858;28;20196;-71
2022/07/29 03:37:51;;;;;;;0.80;0.60;;;;;;;25.16;50.42;95188.78;5049671;28;20584;-68
2022/07/29 03:40:42;;;;;;;1.40;1.30;;;;;;;25.32;50.39;95187.72;5050052;28;20254;-71
2022/07/29 03:43:11;;;;;;;0.60;0.60;;;;;;;25.39;49.91;95187.16;5035727;28;20284;-68
2022/07/29 03:45:41;;;;;;;0.40;0.40;;;;;;;25.30;49.94;95175.75;5048493;28;20240;-68
2022/07/29 03:48:12;;;;;;;0.57;0.57;;;;;;;25.31;50.23;95196.13;5049267;28;20254;-69
2022/07/29 03:50:39;;;;;;;0.63;0.60;;;;;;;24.79;52.20;95201.47;5049925;28;20197;-68
2022/07/29 03:53:07;;;;;;;0.30;0.30;;;;;;;24.99;51.34;95187.16;5044259;28;20601;-66
2022/07/29 03:55:41;;;;;;;2.00;1.27;;;;;;;25.09;51.18;95200.06;5049993;28;20193;-63
2022/07/29 03:58:08;;;;;;;0.87;0.87;;;;;;;25.15;50.44;95205.97;5040592;28;20236;-64
2022/07/29 04:00:37;;;;;;;0.77;0.77;;;;;;;25.33;49.64;95204.59;5043648;28;20251;-68
2022/07/29 04:03:04;;;;;;;0.70;0.70;;;;;;;25.46;49.56;95209.59;5050152;28;20586;-68
2022/07/29 04:05:37;;;;;;;0.70;0.70;;;;;;;25.33;49.53;95191.19;5049624;28;20667;-66
2022/07/29 04:08:04;;;;;;;4.30;1.97;;;;;;;25.56;49.43;95211.03;5049682;28;20242;-65
2022/07/29 04:10:31;;;;;;;2.73;0.83;;;;;;;25.45;49.38;95209.94;5053457;28;20192;-67
2022/07/29 04:13:00;;;;;;;0.80;0.80;;;;;;;25.64;48.94;95204.72;5052663;28;20243;-65
2022/07/29 04:15:28;;;;;;;1.80;0.73;;;;;;;25.68;48.78;95200.22;5051348;28;20196;-64
2022/07/29 04:17:58;;;;;;;1.40;1.30;;;;;;;25.53;48.92;95192.94;5048973;28;20207;-68
2022/07/29 04:20:25;;;;;;;1.63;1.53;;;;;;;24.83;51.05;95203.16;5051467;28;20196;-67
2022/07/29 04:22:52;;;;;;;1.17;1.07;;;;;;;25.22;50.42;95203.53;5051437;28;20201;-63
2022/07/29 04:25:19;;;;;;;1.17;1.00;;;;;;;25.07;51.11;95203.09;5052276;28;20180;-70
2022/07/29 04:28:00;;;;;;;1.10;1.10;;;;;;;25.00;50.83;95202.88;5050386;28;20786;-68
2022/07/29 04:30:28;;;;;;;0.77;0.77;;;;;;;25.34;50.47;95195.44;5041195;28;20675;-66
2022/07/29 04:32:55;;;;;;;1.03;0.93;;;;;;;25.60;49.32;95199.25;5051527;28;20282;-67
2022/07/29 04:35:22;;;;;;;0.40;0.40;;;;;;;25.48;49.81;95190.47;5045652;28;20197;-65
2022/07/29 04:37:48;;;;;;;0.67;0.67;;;;;;;25.45;49.78;95204.56;5046950;28;20204;-65
2022/07/29 04:40:15;;;;;;;13.60;1.47;;;;;;;25.77;49.14;95211.59;5051368;28;20211;-66
2022/07/29 04:42:42;;;;;;;5.13;3.70;;;;;;;25.97;48.55;95213.28;5051103;28;20222;-65
2022/07/29 04:45:13;;;;;;;1.07;0.97;;;;;;;25.63;48.93;95219.25;5052276;28;20311;-65
2022/07/29 04:47:40;;;;;;;0.40;0.40;;;;;;;25.94;47.93;95219.34;5052215;28;20195;-66
2022/07/29 04:50:08;;;;;;;1.10;1.00;;;;;;;25.94;48.20;95213.97;5039813;28;20204;-64
2022/07/29 04:52:35;;;;;;;3.73;1.53;;;;;;;26.09;48.24;95221.31;5052622;28;20223;-65
2022/07/29 04:55:04;;;;;;;3.53;1.73;;;;;;;26.02;48.25;95211.09;5042208;28;20197;-62
2022/07/29 04:57:32;;;;;;;2.90;2.70;;;;;;;26.21;48.07;95213.16;5052367;28;20219;-63
2022/07/29 04:59:59;;;;;;;3.10;2.90;;;;;;;26.24;47.80;95223.19;5052520;28;20193;-62
2022/07/29 05:02:25;;;;;;;10.03;8.93;;;;;;;26.36;47.52;95217.75;5046912;28;20220;-64
2022/07/29 05:04:52;;;;;;;1.90;1.80;;;;;;;26.21;47.81;95221.22;5032705;28;20203;-65
2022/07/29 05:07:20;;;;;;;16.87;4.00;;;;;;;26.73;46.42;95227.09;5045003;28;20228;-62
2022/07/29 05:09:47;;;;;;;0.70;0.70;;;;;;;26.67;46.61;95225.81;5042556;28;20208;-63
2022/07/29 05:12:14;;;;;;;1.03;1.03;;;;;;;26.76;46.02;95218.38;5051317;28;20192;-62
2022/07/29 05:14:41;;;;;;;0.63;0.63;;;;;;;26.60;46.32;95220.25;5051526;28;20196;-62
2022/07/29 05:17:08;;;;;;;1.60;1.50;;;;;;;25.95;48.03;95232.41;5045311;28;20189;-63
2022/07/29 05:19:34;;;;;;;1.13;0.90;;;;;;;26.41;47.04;95228.25;5045158;28;20262;-61
2022/07/29 05:22:05;;;;;;;0.77;0.77;;;;;;;26.61;46.44;95232.56;5051715;28;20235;-65
2022/07/29 05:24:33;;;;;;;0.73;0.67;;;;;;;26.02;47.35;95240.66;5051339;28;20238;-65
2022/07/29 05:27:02;;;;;;;1.57;1.47;;;;;;;26.28;46.37;95240.19;5050593;28;20226;-67
2022/07/29 05:29:29;;;;;;;0.57;0.57;;;;;;;26.64;46.21;95231.84;5041007;28;20243;-67
2022/07/29 05:32:11;;;;;;;1.23;0.80;;;;;;;26.95;45.64;95226.47;5050627;28;20265;-66
2022/07/29 05:34:39;;;;;;;1.30;1.20;;;;;;;26.73;45.56;95218.28;5051462;28;20377;-65
2022/07/29 05:37:20;;;;;;;1.20;1.00;;;;;;;26.65;46.58;95230.75;5046974;28;20197;-66
2022/07/29 05:39:47;;;;;;;0.70;0.70;;;;;;;26.41;47.06;95228.25;5042741;28;20196;-66
2022/07/29 05:42:24;;;;;;;0.83;0.83;;;;;;;26.57;46.29;95226.31;5051661;28;20192;-65
2022/07/29 05:44:52;;;;;;;0.47;0.47;;;;;;;26.78;45.88;95216.09;5051081;28;20877;-68
2022/07/29 05:47:19;;;;;;;0.60;0.60;;;;;;;26.70;45.59;95230.50;5032961;28;20194;-68
2022/07/29 05:49:45;;;;;;;0.93;0.93;;;;;;;26.62;45.59;95217.97;5040690;28;20196;-67
2022/07/29 05:52:13;;;;;;;1.23;1.23;;;;;;;27.08;45.33;95235.19;5051133;28;20283;-67
2022/07/29 05:54:40;;;;;;;0.43;0.43;;;;;;;26.41;47.62;95228.25;5043721;28;20217;-66
2022/07/29 05:57:07;;;;;;;0.57;0.57;;;;;;;26.94;45.79;95235.69;5049505;28;20219;-67
2022/07/29 05:59:37;;;;;;;0.80;0.80;;;;;;;26.99;45.60;95232.72;5049837;28;20196;-66
2022/07/29 06:02:04;;;;;;;1.67;1.10;;;;;;;27.18;45.73;95231.97;5037430;28;20213;-66
2022/07/29 06:04:33;;;;;;;0.50;0.50;;;;;;;26.97;45.83;95234.97;5051072;28;20200;-65
2022/07/29 06:07:01;;;;;;;0.57;0.57;;;;;;;27.04;45.86;95237.06;5051104;28;20200;-65
2022/07/29 06:09:28;;;;;;;1.10;0.93;;;;;;;26.74;46.43;95241.34;5050825;28;20184;-66
2022/07/29 06:11:55;;;;;;;1.47;1.07;;;;;;;27.17;45.44;95232.31;5037219;28;20738;-66
2022/07/29 06:14:22;;;;;;;2.80;1.67;;;;;;;27.22;45.55;95240.13;5030730;28;20228;-67
2022/07/29 06:16:48;;;;;;;0.70;0.70;;;;;;;27.22;45.66;95242.81;5043253;28;20253;-65
2022/07/29 06:19:16;;;;;;;0.50;0.50;;;;;;;27.60;45.08;95245.56;5051115;28;20205;-67
2022/07/29 06:21:43;;;;;;;1.20;0.87;;;;;;;27.43;46.02;95241.38;5050760;28;20196;-66
2022/07/29 06:24:14;;;;;;;0.60;0.60;;;;;;;27.78;44.46;95235.91;5036149;28;20274;-66
2022/07/29 06:26:42;;;;;;;0.60;0.60;;;;;;;27.44;44.36;95231.38;5050796;28;20219;-67
2022/07/29 06:29:10;;;;;;;0.20;0.20;;;;;;;27.27;44.36;95231.75;5048769;28;20246;-65
2022/07/29 06:31:37;;;;;;;0.40;0.40;;;;;;;27.76;43.92;95235.47;5038685;28;20207;-65
2022/07/29 06:34:04;;;;;;;0.97;0.97;;;;;;;27.83;43.98;95228.31;5050052;28;20608;-66
2022/07/29 06:36:35;;;;;;;0.60;0.60;;;;;;;28.15;43.73;95234.34;5037353;28;20558;-66
2022/07/29 06:39:05;;;;;;;1.40;1.30;;;;;;;27.50;45.12;95235.38;5050429;28;20299;-66
2022/07/29 06:41:33;;;;;;;0.83;0.83;;;;;;;27.86;44.08;95226.84;5037004;28;20200;-67
2022/07/29 06:44:08;;;;;;;0.67;0.60;;;;;;;27.72;44.49;95226.56;5048958;28;20240;-67
2022/07/29 06:46:35;;;;;;;0.53;0.53;;;;;;;27.86;43.63;95224.91;5045212;28;20628;-67
2022/07/29 06:49:02;;;;;;;0.40;0.40;;;;;;;28.14;43.21;95227.38;5042228;28;20201;-67
2022/07/29 06:51:29;;;;;;;0.70;0.70;;;;;;;28.31;43.84;95220.72;5032419;28;20189;-65
2022/07/29 06:53:57;;;;;;;2.40;0.97;;;;;;;28.12;43.00;95229.63;5044497;28;20220;-66
2022/07/29 06:56:31;;;;;;;1.13;0.93;;;;;;;28.43;42.52;95223.25;5043068;28;20196;-65
2022/07/29 06:59:05;;;;;;;0.53;0.53;;;;;;;28.62;42.61;95210.50;5036480;28;20196;-64
2022/07/29 07:01:32;;;;;;;0.40;0.40;;;;;;;28.34;42.92;95222.72;5050301;28;20656;-66
2022/07/29 07:03:59;;;;;;;0.77;0.77;;;;;;;28.16;42.93;95225.09;5050063;28;20196;-64
2022/07/29 07:06:25;;;;;;;0.60;0.60;;;;;;;28.13;42.35;95209.66;5050121;28;20208;-66
2022/07/29 07:08:52;;;;;;;0.30;0.30;;;;;;;28.47;42.00;95224.88;5047024;28;20201;-66
2022/07/29 07:11:20;;;;;;;1.33;1.13;;;;;;;28.27;41.61;95220.69;5030629;28;20690;-65
2022/07/29 07:13:46;;;;;;;0.40;0.40;;;;;;;28.87;39.65;95217.03;5034539;28;20220;-65
2022/07/29 07:16:13;;;;;;;0.63;0.47;;;;;;;28.28;40.36;95222.25;5043429;28;20194;-65
2022/07/29 07:18:40;;;;;;;0.60;0.60;;;;;;;28.80;40.13;95224.25;5028969;28;20206;-65
2022/07/29 07:21:07;;;;;;;1.37;1.23;;;;;;;29.23;39.50;95212.19;5036106;28;20193;-64
2022/07/29 07:23:34;;;;;;;0.53;0.53;;;;;;;29.08;39.71;95223.88;5038123;28;20251;-64
2022/07/29 07:26:04;;;;;;;0.33;0.33;;;;;;;29.39;40.06;95215.47;5047895;28;20239;-66
2022/07/29 07:28:31;;;;;;;1.20;1.10;;;;;;;29.15;40.16;95215.91;5039363;28;20228;-67
2022/07/29 07:30:58;;;;;;;0.60;0.60;;;;;;;29.36;39.19;95218.91;5046692;28;20208;-66
2022/07/29 07:33:25;;;;;;;1.10;1.03;;;;;;;29.51;39.12;95212.53;5050253;28;20278;-66
2022/07/29 07:35:51;;;;;;;1.13;1.10;;;;;;;29.42;38.81;95209.31;5035976;28;20255;-66
2022/07/29 07:38:18;;;;;;;1.00;1.00;;;;;;;29.33;39.03;95211.53;5049817;28;20306;-68
2022/07/29 07:40:46;;;;;;;0.40;0.40;;;;;;;29.58;38.83;95201.84;5036803;28;20649;-70
2022/07/29 07:43:13;;;;;;;0.50;0.50;;;;;;;29.57;39.27;95206.44;5050050;28;20193;-65
2022/07/29 07:45:39;;;;;;;0.40;0.40;;;;;;;29.58;40.11;95201.84;5041466;28;20801;-65
2022/07/29 07:48:06;;;;;;;1.60;1.17;;;;;;;29.97;38.82;95213.84;5051790;28;20205;-64
2022/07/29 07:50:33;;;;;;;2.40;0.93;;;;;;;30.11;38.37;95207.81;5053380;28;20711;-67
2022/07/29 07:53:01;;;;;;;0.40;0.40;;;;;;;30.18;38.25;95202.50;5053654;28;20196;-67
2022/07/29 07:55:29;;;;;;;0.60;0.60;;;;;;;29.90;38.08;95205.69;5053134;28;20196;-65
2022/07/29 07:58:16;;;;;;;0.47;0.47;;;;;;;30.28;37.25;95199.91;5040027;28;20276;-67
2022/07/29 08:00:48;;;;;;;0.30;0.30;;;;;;;29.88;37.00;95210.69;5033021;28;20207;-66
2022/07/29 08:03:15;;;;;;;0.23;0.23;;;;;;;30.27;37.50;95203.78;5046463;28;20204;-68
2022/07/29 08:05:43;;;;;;;1.20;1.20;;;;;;;30.01;36.42;95206.56;5053278;28;20203;-65
2022/07/29 08:08:10;;;;;;;0.40;0.40;;;;;;;30.42;36.74;95201.97;5053408;28;20204;-65
2022/07/29 08:10:52;;;;;;;0.70;0.70;;;;;;;30.55;35.86;95201.28;5053151;28;20192;-66
2022/07/29 08:13:20;;;;;;;0.50;0.50;;;;;;;30.60;36.23;95198.22;5041590;28;20217;-65
2022/07/29 08:15:57;;;;;;;0.50;0.50;;;;;;;31.02;35.94;95205.13;5050883;28;20288;-69
2022/07/29 08:18:24;;;;;;;1.30;1.17;;;;;;;30.80;36.19;95202.25;5052165;28;20200;-67
2022/07/29 08:20:51;;;;;;;0.63;0.63;;;;;;;31.12;34.89;95199.00;5052711;28;20258;-65
2022/07/29 08:23:18;;;;;;;1.20;0.83;;;;;;;30.61;34.51;95194.38;5054500;28;20192;-64
2022/07/29 08:25:45;;;;;;;1.27;0.97;;;;;;;30.85;35.52;95188.41;5052230;28;20254;-67
2022/07/29 08:28:16;;;;;;;0.43;0.43;;;;;;;31.22;33.78;95187.44;5043060;28;20204;-64
2022/07/29 08:30:43;;;;;;;0.87;0.87;;;;;;;31.04;35.02;95189.28;5053936;28;20216;-65
2022/07/29 08:33:10;;;;;;;0.20;0.20;;;;;;;31.09;34.96;95186.22;5046742;28;20280;-68
2022/07/29 08:35:38;;;;;;;0.60;0.60;;;;;;;31.63;34.64;95188.81;5032492;28;20247;-65
2022/07/29 08:38:05;;;;;;;0.33;0.33;;;;;;;31.52;34.70;95182.56;5052226;28;20200;-67
2022/07/29 08:40:32;;;;;;;0.50;0.50;;;;;;;31.30;33.75;95184.41;5052525;28;20497;-65
2022/07/29 08:43:07;;;;;;;0.73;0.73;;;;;;;31.94;32.57;95181.94;5052384;28;20188;-66
2022/07/29 08:45:46;;;;;;;0.53;0.53;;;;;;;32.27;32.53;95195.19;5052383;28;20235;-65
2022/07/29 08:48:16;;;;;;;0.47;0.47;;;;;;;32.18;31.99;95187.44;5038525;28;20262;-68
2022/07/29 08:50:44;;;;;;;0.40;0.40;;;;;;;32.52;31.91;95168.84;5040958;28;20193;-65
2022/07/29 08:53:13;;;;;;;0.70;0.70;;;;;;;32.46;32.67;95176.59;5050508;28;20637;-67
2022/07/29 08:55:43;;;;;;;0.90;0.90;;;;;;;32.37;31.35;95184.31;5041905;28;20821;-67
2022/07/29 08:58:11;;;;;;;1.90;1.13;;;;;;;31.97;30.62;95176.53;5051403;28;20192;-67
2022/07/29 09:00:49;;;;;;;1.17;1.10;;;;;;;32.40;31.00;95172.72;5052282;28;20299;-65
2022/07/29 09:03:19;;;;;;;1.37;1.27;;;;;;;32.24;30.81;95185.09;5052306;28;20304;-66
2022/07/29 09:05:47;;;;;;;0.30;0.30;;;;;;;32.11;31.40;95176.56;5052271;28;20207;-66
2022/07/29 09:08:15;;;;;;;0.30;0.30;;;;;;;32.40;30.33;95161.88;5052217;28;20204;-65
2022/07/29 09:10:44;;;;;;;0.47;0.47;;;;;;;32.71;31.21;95171.97;5037809;28;20213;-66
2022/07/29 09:13:11;;;;;;;0.47;0.47;;;;;;;33.04;29.71;95173.47;5051886;28;20246;-66
2022/07/29 09:15:38;;;;;;;0.77;0.77;;;;;;;32.99;30.15;95164.97;5038107;28;20220;-66
2022/07/29 09:18:05;;;;;;;1.03;0.93;;;;;;;32.21;29.93;95175.03;5042021;28;20197;-66
2022/07/29 09:23:17;;;;;;;0.43;0.43;;;;;;;32.27;29.82;95176.97;5051720;28;20212;-65
2022/07/29 09:25:50;;;;;;;0.37;0.30;;;;;;;31.88;30.47;95167.97;5037695;28;20257;-65
2022/07/29 09:28:17;;;;;;;1.17;1.13;;;;;;;32.32;30.26;95168.44;5042879;28;20220;-66
2022/07/29 09:30:56;;;;;;;0.80;0.80;;;;;;;32.05;31.07;95166.47;5032348;28;20197;-64
2022/07/29 09:33:30;;;;;;;0.50;0.50;;;;;;;32.52;30.72;95164.22;5051159;28;20201;-65
2022/07/29 09:36:04;;;;;;;0.60;0.60;;;;;;;32.72;31.46;95168.06;5051317;28;20195;-66
2022/07/29 09:38:33;;;;;;;0.30;0.30;;;;;;;33.23;30.22;95159.44;5051495;28;20192;-66
2022/07/29 09:41:02;;;;;;;0.77;0.57;;;;;;;33.14;30.97;95163.78;5050877;28;20250;-66
2022/07/29 09:43:32;;;;;;;0.47;0.47;;;;;;;33.10;30.10;95157.56;5051365;28;20647;-65
2022/07/29 09:46:26;;;;;;;0.60;0.60;;;;;;;32.81;29.09;95163.03;5050997;28;20201;-65
2022/07/29 09:49:12;;;;;;;1.30;1.03;;;;;;;33.38;29.78;95158.22;5041851;28;20258;-67
2022/07/29 09:51:40;;;;;;;0.60;0.60;;;;;;;33.03;28.89;95149.44;5051027;28;20279;-68
2022/07/29 09:54:23;;;;;;;0.30;0.30;;;;;;;33.74;29.40;95153.44;5051571;28;20216;-67
2022/07/29 09:56:50;;;;;;;0.50;0.50;;;;;;;34.33;28.60;95138.69;5051064;28;20204;-66
2022/07/29 09:59:17;;;;;;;0.53;0.53;;;;;;;33.91;28.41;95144.41;5043532;28;20197;-67
2022/07/29 10:01:44;;;;;;;0.30;0.30;;;;;;;33.68;28.59;95141.44;5030939;28;20895;-67
2022/07/29 10:04:10;;;;;;;0.70;0.70;;;;;;;34.20;28.62;95139.56;5051429;28;20181;-65
2022/07/29 10:06:58;;;;;;;0.50;0.50;;;;;;;33.88;27.01;95134.34;5050398;28;20196;-67
2022/07/29 10:09:31;;;;;;;0.53;0.53;;;;;;;34.00;28.57;95133.88;5038925;28;20271;-66
2022/07/29 10:12:11;;;;;;;0.40;0.40;;;;;;;34.38;27.62;95119.22;5049308;28;20254;-65
2022/07/29 10:14:38;;;;;;;0.50;0.50;;;;;;;34.28;27.76;95128.25;5050769;28;20216;-67
2022/07/29 10:17:06;;;;;;;0.53;0.53;;;;;;;34.32;27.38;95120.84;5050314;28;20295;-65
2022/07/29 10:19:35;;;;;;;0.40;0.40;;;;;;;34.71;27.90;95115.81;5050871;28;20191;-66
2022/07/29 10:22:05;;;;;;;0.30;0.30;;;;;;;34.53;26.56;95120.66;5050999;28;20649;-67
2022/07/29 10:24:33;;;;;;;0.57;0.57;;;;;;;34.92;25.91;95093.06;5050493;28;20204;-66
2022/07/29 10:27:01;;;;;;;0.40;0.40;;;;;;;34.68;26.58;95111.19;5050664;28;20711;-65
2022/07/29 10:29:31;;;;;;;0.90;0.90;;;;;;;35.16;26.68;95085.81;5050769;28;20216;-67
2022/07/29 10:32:34;;;;;;;0.63;0.63;;;;;;;35.37;26.41;95107.31;5050682;28;20201;-65
2022/07/29 10:35:04;;;;;;;0.70;0.70;;;;;;;34.59;24.98;95097.28;5050689;28;20219;-63
2022/07/29 10:37:57;;;;;;;0.43;0.43;;;;;;;34.93;25.24;95104.72;5050374;28;20666;-67
2022/07/29 10:43:47;;;;;;;0.37;0.37;;;;;;;34.60;25.56;95098.81;5045100;28;20687;-69
2022/07/29 10:46:18;;;;;;;0.60;0.60;;;;;;;35.69;24.77;95088.63;5035402;28;20279;-67
2022/07/29 10:49:03;;;;;;;0.33;0.33;;;;;;;35.71;24.81;95094.44;5040175;28;20201;-64
2022/07/29 10:51:52;;;;;;;0.63;0.63;;;;;;;35.71;25.74;95088.22;5049298;28;20216;-65
2022/07/29 10:54:39;;;;;;;0.63;0.63;;;;;;;35.86;24.73;95079.41;5050592;28;20671;-66
2022/07/29 10:57:15;;;;;;;0.50;0.43;;;;;;;35.65;25.42;95080.50;5050307;28;20188;-65
2022/07/29 10:59:44;;;;;;;11.03;1.70;;;;;;;35.79;25.61;95087.69;5050051;28;20200;-67
2022/07/29 11:02:33;;;;;;;0.70;0.57;;;;;;;36.93;24.68;95079.22;5049991;28;20258;-66
2022/07/29 11:05:18;;;;;;;1.83;1.70;;;;;;;36.49;25.09;95067.53;5050049;28;20196;-65
2022/07/29 11:08:11;;;;;;;0.30;0.30;;;;;;;36.68;25.09;95085.09;5042509;28;20196;-66
2022/07/29 11:10:51;;;;;;;0.60;0.57;;;;;;;36.70;24.14;95068.34;5049354;28;20258;-64
2022/07/29 11:13:46;;;;;;;1.33;1.07;;;;;;;36.66;24.38;95073.06;5050312;28;20200;-66
2022/07/29 11:16:15;;;;;;;0.43;0.43;;;;;;;36.26;24.83;95059.31;5037951;28;20188;-65
2022/07/29 11:19:10;;;;;;;0.70;0.70;;;;;;;36.72;24.46;95068.66;5052498;28;20200;-66
2022/07/29 11:21:39;;;;;;;0.40;0.40;;;;;;;36.70;24.75;95052.69;5043956;28;20229;-66
2022/07/29 11:24:28;;;;;;;0.60;0.53;;;;;;;36.26;24.81;95053.84;5054101;28;20276;-66
2022/07/29 11:27:17;;;;;;;0.30;0.30;;;;;;;36.51;25.29;95045.25;5054305;28;20578;-64
2022/07/29 11:29:57;;;;;;;0.50;0.50;;;;;;;36.45;25.38;95066.81;5040867;28;20396;-67
2022/07/29 11:32:37;;;;;;;0.57;0.57;;;;;;;36.64;24.47;95057.88;5054001;28;20336;-67
2022/07/29 11:35:17;;;;;;;0.40;0.40;;;;;;;36.81;25.05;95038.84;5045459;28;20224;-65
2022/07/29 11:38:22;;;;;;;0.57;0.57;;;;;;;36.40;24.20;95048.19;5053044;28;20587;-66
2022/07/29 11:41:17;;;;;;;0.63;0.57;;;;;;;36.88;24.30;95044.22;5053722;28;20200;-65
2022/07/29 11:43:57;;;;;;;0.60;0.60;;;;;;;35.82;23.87;95037.03;5043660;28;20250;-65
2022/07/29 11:46:50;;;;;;;0.77;0.77;;;;;;;36.35;23.26;95051.34;5053953;28;20192;-67
2022/07/29 11:49:25;;;;;;;0.83;0.83;;;;;;;37.40;23.66;95042.34;5053415;28;20200;-67
2022/07/29 11:52:02;;;;;;;0.73;0.73;;;;;;;37.35;23.52;95040.13;5041590;28;20672;-64
2022/07/29 11:54:33;;;;;;;0.97;0.93;;;;;;;37.31;22.92;95033.97;5039982;28;20247;-66
2022/07/29 11:57:20;;;;;;;0.77;0.77;;;;;;;37.43;23.29;95036.03;5039668;28;20282;-66
2022/07/29 11:59:48;;;;;;;1.17;1.00;;;;;;;37.47;23.62;95026.56;5053686;28;20231;-68
2022/07/29 12:02:16;;;;;;;0.80;0.80;;;;;;;37.68;23.37;95030.81;5049036;28;20208;-67
2022/07/29 12:05:03;;;;;;;0.47;0.47;;;;;;;37.71;23.51;95024.47;5047014;28;20583;-67